Time;durP1;ratioP1;P1;durP2;ratioP2;P2;SDS_P1;SDS_P2;PMS_P1;PMS_P2;Temp;Humidity;BMP_temperature;BMP_pressure;BME280_temperature;BME280_humidity;BME280_pressure;Samples;Min_cycle;Max_cycle;Signal;HPM_P1;HPM_P2
2021/04/23 00:00:53;;;;;;;12.70;5.47;;;;;;;5.41;58.67;100324.81;147798;1147;104531;-78
2021/04/23 00:03:59;;;;;;;13.20;6.90;;;;;;;5.43;58.74;100327.34;147535;1147;104674;-77
2021/04/23 00:07:03;;;;;;;12.28;6.42;;;;;;;5.41;58.55;100324.81;147733;1148;104566;-79
2021/04/23 00:10:11;;;;;;;14.87;5.45;;;;;;;5.40;58.90;100325.77;147775;1147;104572;-79
2021/04/23 00:13:16;;;;;;;12.85;5.20;;;;;;;5.35;58.64;100324.42;147926;1147;104634;-79
2021/04/23 00:16:19;;;;;;;10.63;5.25;;;;;;;5.33;58.86;100327.19;147755;1147;104541;-80
2021/04/23 00:19:25;;;;;;;12.70;5.33;;;;;;;5.28;58.66;100329.36;147810;1147;104553;-82
2021/04/23 00:22:28;;;;;;;13.83;7.60;;;;;;;5.24;58.43;100330.56;147830;1148;104572;-77
2021/04/23 00:25:32;;;;;;;11.33;5.80;;;;;;;5.20;58.22;100329.11;147327;1147;104570;-76
2021/04/23 00:28:36;;;;;;;13.60;5.53;;;;;;;5.13;58.58;100334.00;147497;1148;104575;-76
2021/04/23 00:31:41;;;;;;;13.90;6.80;;;;;;;5.09;58.69;100340.48;147743;1147;104502;-78
2021/04/23 00:34:44;;;;;;;14.83;5.72;;;;;;;5.02;58.67;100334.83;147325;1147;104429;-80
2021/04/23 00:37:47;;;;;;;10.63;5.17;;;;;;;4.97;58.50;100331.68;147352;1147;104604;-76
2021/04/23 00:40:55;;;;;;;12.20;6.03;;;;;;;4.94;58.83;100331.06;147313;1148;104482;-76
2021/04/23 00:43:59;;;;;;;11.55;5.60;;;;;;;4.87;59.13;100328.05;147654;1147;104617;-80
2021/04/23 00:47:02;;;;;;;11.10;5.67;;;;;;;4.82;58.50;100327.54;147713;1147;104470;-80
2021/04/23 00:50:08;;;;;;;12.18;5.58;;;;;;;4.76;59.07;100341.22;147624;1146;104682;-77
2021/04/23 00:53:14;;;;;;;14.10;5.90;;;;;;;4.68;59.23;100339.98;147341;1147;104473;-75
2021/04/23 00:56:21;;;;;;;14.75;6.50;;;;;;;4.66;59.27;100339.25;147353;1147;104901;-76
2021/04/23 00:59:26;;;;;;;14.73;5.97;;;;;;;4.61;59.24;100344.02;147264;1148;104611;-76
2021/04/23 01:02:29;;;;;;;13.17;6.03;;;;;;;4.56;59.01;100351.46;147443;1147;104539;-75
2021/04/23 01:05:35;;;;;;;13.85;6.20;;;;;;;4.50;60.12;100347.47;147311;1147;104460;-77
2021/04/23 01:08:39;;;;;;;14.33;6.60;;;;;;;4.51;60.03;100351.78;147373;1147;104454;-76
2021/04/23 01:11:43;;;;;;;16.85;6.08;;;;;;;4.55;59.66;100352.41;147413;1147;104607;-74
2021/04/23 01:14:46;;;;;;;12.80;5.30;;;;;;;4.62;59.14;100353.65;147351;1147;104608;-75
2021/04/23 01:17:50;;;;;;;12.73;5.60;;;;;;;4.65;59.90;100353.41;147349;1147;104569;-76
2021/04/23 01:21:02;;;;;;;10.80;5.00;;;;;;;4.68;59.39;100363.77;147403;1147;104470;-75
2021/04/23 01:24:10;;;;;;;11.30;5.65;;;;;;;4.70;59.08;100361.85;147405;1147;104812;-76
2021/04/23 01:27:14;;;;;;;12.30;5.53;;;;;;;4.69;59.53;100357.50;147385;1147;104526;-79
2021/04/23 01:30:21;;;;;;;19.82;9.18;;;;;;;4.68;59.58;100360.28;147332;1147;104537;-76
2021/04/23 01:33:24;;;;;;;17.10;8.43;;;;;;;4.62;59.53;100355.42;147593;1147;104573;-76
2021/04/23 01:36:28;;;;;;;16.85;7.12;;;;;;;4.56;59.21;100359.39;147437;1147;104560;-76
2021/04/23 01:39:34;;;;;;;12.95;6.35;;;;;;;4.52;58.64;100368.47;147406;1147;104481;-75
2021/04/23 01:42:38;;;;;;;12.55;6.47;;;;;;;4.46;58.85;100355.70;147261;1147;104481;-74
2021/04/23 01:45:41;;;;;;;15.13;7.63;;;;;;;4.40;59.39;100366.73;147422;1147;104611;-76
2021/04/23 01:48:45;;;;;;;21.57;11.12;;;;;;;4.36;58.80;100359.98;147472;1147;104486;-76
2021/04/23 01:51:53;;;;;;;20.77;9.83;;;;;;;4.30;59.15;100363.91;147382;1147;104481;-76
2021/04/23 01:54:56;;;;;;;37.97;20.23;;;;;;;4.22;58.96;100361.81;147428;1147;104586;-78
2021/04/23 01:57:59;;;;;;;51.83;27.73;;;;;;;4.20;59.02;100363.72;147269;1148;104543;-76
2021/04/23 02:01:06;;;;;;;31.55;19.17;;;;;;;4.18;58.90;100359.52;147407;1147;104586;-76
2021/04/23 02:04:11;;;;;;;18.12;10.55;;;;;;;4.15;59.79;100359.72;147280;1148;104570;-82
2021/04/23 02:07:16;;;;;;;14.00;8.18;;;;;;;4.10;59.18;100366.17;147328;1148;104494;-77
2021/04/23 02:10:23;;;;;;;21.80;12.82;;;;;;;4.06;59.49;100363.84;147401;1146;104566;-76
2021/04/23 02:13:28;;;;;;;17.15;10.00;;;;;;;4.02;60.03;100365.88;147394;1147;104567;-79
2021/04/23 02:16:31;;;;;;;29.40;20.43;;;;;;;4.00;59.54;100372.20;147408;1147;104665;-78
2021/04/23 02:19:35;;;;;;;23.12;14.28;;;;;;;3.97;59.47;100377.72;147300;1147;104551;-77
2021/04/23 02:22:39;;;;;;;13.13;7.90;;;;;;;3.93;59.53;100367.36;147368;1147;104527;-76
2021/04/23 02:25:42;;;;;;;17.62;9.88;;;;;;;3.90;59.45;100378.12;147357;1147;104507;-76
2021/04/23 02:28:48;;;;;;;15.58;7.92;;;;;;;3.87;60.64;100383.63;147311;1147;104476;-78
2021/04/23 02:31:55;;;;;;;12.65;6.78;;;;;;;3.86;60.83;100383.73;147524;1147;104607;-75
2021/04/23 02:34:58;;;;;;;21.73;13.03;;;;;;;3.84;60.41;100381.20;147546;1147;104526;-77
2021/04/23 02:38:01;;;;;;;12.37;7.00;;;;;;;3.86;60.05;100381.92;147373;1147;104484;-77
2021/04/23 02:41:05;;;;;;;13.08;5.97;;;;;;;3.90;60.83;100383.40;147556;1148;104483;-75
2021/04/23 02:44:09;;;;;;;11.00;5.50;;;;;;;3.96;59.47;100378.65;147531;1147;104567;-74
2021/04/23 02:47:12;;;;;;;13.18;6.58;;;;;;;3.98;60.49;100382.86;147334;1147;104524;-77
2021/04/23 02:50:18;;;;;;;12.30;5.15;;;;;;;4.01;59.87;100379.19;147323;1148;104630;-74
2021/04/23 02:53:22;;;;;;;11.38;5.78;;;;;;;4.02;60.50;100380.86;147536;1148;104453;-76
2021/04/23 02:56:27;;;;;;;11.38;5.80;;;;;;;4.00;59.73;100380.13;147709;1147;104595;-79
2021/04/23 02:59:30;;;;;;;10.80;5.57;;;;;;;3.96;59.89;100386.57;147651;1147;104561;-75
2021/04/23 03:02:33;;;;;;;11.37;5.80;;;;;;;3.91;60.64;100387.74;147605;1147;104573;-78
2021/04/23 03:05:38;;;;;;;11.50;5.95;;;;;;;3.87;59.75;100386.27;147310;1147;104544;-81
2021/04/23 03:08:42;;;;;;;15.45;6.28;;;;;;;3.83;59.71;100391.84;147801;1147;104484;-77
2021/04/23 03:11:45;;;;;;;13.50;6.13;;;;;;;3.77;60.84;100387.00;147804;1147;104572;-75
2021/04/23 03:14:49;;;;;;;15.25;6.08;;;;;;;3.78;61.37;100394.82;147913;1148;104557;-78
2021/04/23 03:17:54;;;;;;;13.08;5.28;;;;;;;3.78;61.11;100388.70;147907;1147;104665;-80
2021/04/23 03:21:00;;;;;;;10.48;5.70;;;;;;;3.81;60.14;100386.70;147935;1147;104458;-83
2021/04/23 03:24:04;;;;;;;11.55;5.70;;;;;;;3.84;60.10;100389.11;147927;1147;104436;-77
2021/04/23 03:27:08;;;;;;;11.70;5.60;;;;;;;3.88;61.28;100389.75;147820;1147;104601;-79
2021/04/23 03:30:17;;;;;;;11.70;5.30;;;;;;;3.92;60.88;100388.58;147746;1147;104535;-77
2021/04/23 03:33:20;;;;;;;13.57;5.53;;;;;;;3.95;60.83;100400.73;147643;1147;105284;-82
2021/04/23 03:36:24;;;;;;;13.05;5.67;;;;;;;3.93;60.23;100393.76;147530;1147;104555;-82
2021/04/23 03:39:27;;;;;;;13.13;6.03;;;;;;;3.93;61.39;100398.20;147789;1146;104450;-78
2021/04/23 03:42:30;;;;;;;11.15;5.80;;;;;;;3.92;60.13;100402.61;147748;1147;104486;-78
2021/04/23 03:45:34;;;;;;;14.95;6.03;;;;;;;3.91;59.74;100408.86;147617;1147;104453;-81
2021/04/23 03:48:38;;;;;;;15.08;6.20;;;;;;;3.99;60.71;100407.49;147850;1147;104688;-82
2021/04/23 03:51:41;;;;;;;13.48;5.12;;;;;;;4.06;60.89;100412.23;147267;1147;104607;-80
2021/04/23 03:54:44;;;;;;;14.50;5.77;;;;;;;4.17;60.68;100413.27;147753;1147;104570;-77
2021/04/23 03:57:47;;;;;;;11.17;6.20;;;;;;;4.25;60.01;100417.07;147747;1147;104566;-77
2021/04/23 04:00:53;;;;;;;12.13;6.20;;;;;;;4.33;60.52;100416.53;147529;1147;104571;-77
2021/04/23 04:03:56;;;;;;;12.47;5.23;;;;;;;4.38;60.42;100416.19;147414;1147;104537;-77
2021/04/23 04:07:01;;;;;;;11.45;5.08;;;;;;;4.38;59.95;100419.67;147804;1147;104505;-78
2021/04/23 04:10:09;;;;;;;15.48;6.37;;;;;;;4.35;60.61;100425.19;147589;1146;104512;-76
2021/04/23 04:13:12;;;;;;;11.95;5.47;;;;;;;4.36;60.41;100428.66;147743;1148;104492;-76
2021/04/23 04:16:15;;;;;;;9.60;5.37;;;;;;;4.35;59.83;100434.89;147773;1147;104492;-75
2021/04/23 04:19:18;;;;;;;13.10;5.55;;;;;;;4.33;59.77;100435.86;147726;1147;104534;-75
2021/04/23 04:22:21;;;;;;;11.73;5.80;;;;;;;4.32;60.68;100446.52;147419;1148;104568;-82
2021/04/23 04:25:27;;;;;;;11.77;5.67;;;;;;;4.31;60.76;100447.47;147784;1148;104571;-80
2021/04/23 04:28:32;;;;;;;10.87;5.57;;;;;;;4.39;60.40;100446.92;147765;1148;104560;-78
2021/04/23 04:31:35;;;;;;;11.97;5.87;;;;;;;4.55;60.21;100446.70;147782;1147;104643;-78
2021/04/23 04:34:39;;;;;;;12.50;6.40;;;;;;;4.72;60.46;100449.81;147711;1148;104623;-78
2021/04/23 04:37:42;;;;;;;12.37;6.03;;;;;;;4.87;60.14;100449.67;147787;1145;104582;-78
2021/04/23 04:40:48;;;;;;;17.37;7.90;;;;;;;5.00;60.09;100439.86;147733;1147;104816;-78
2021/04/23 04:43:51;;;;;;;14.70;6.50;;;;;;;5.19;60.13;100449.09;147598;1147;104446;-78
2021/04/23 04:46:54;;;;;;;12.53;5.87;;;;;;;5.40;60.08;100444.84;147759;1148;104553;-79
2021/04/23 04:49:58;;;;;;;14.07;6.92;;;;;;;5.54;59.74;100456.19;147497;1147;104708;-78
2021/04/23 04:53:03;;;;;;;12.23;5.80;;;;;;;5.64;59.39;100452.75;147793;1147;104482;-78
2021/04/23 04:56:06;;;;;;;13.83;6.33;;;;;;;5.82;59.58;100461.08;147611;1147;104468;-79
2021/04/23 04:59:09;;;;;;;13.88;6.35;;;;;;;5.92;59.11;100466.51;147624;1147;104950;-78
2021/04/23 05:02:14;;;;;;;9.30;5.62;;;;;;;6.13;59.31;100464.05;147674;1147;104486;-81
2021/04/23 05:05:18;;;;;;;11.50;6.00;;;;;;;6.27;58.87;100463.83;147804;1147;104518;-78
2021/04/23 05:08:22;;;;;;;12.63;6.17;;;;;;;6.18;58.72;100468.97;147391;1148;104561;-77
2021/04/23 05:11:25;;;;;;;14.93;7.90;;;;;;;6.07;58.88;100470.66;147737;1148;104560;-81
2021/04/23 05:14:28;;;;;;;12.70;6.42;;;;;;;6.06;58.65;100479.58;147350;1147;104476;-78
2021/04/23 05:17:32;;;;;;;12.63;6.15;;;;;;;6.09;59.19;100479.33;147253;1147;104495;-78
2021/04/23 05:20:36;;;;;;;13.03;6.60;;;;;;;6.13;58.26;100474.64;147580;1148;104552;-80
2021/04/23 05:23:39;;;;;;;14.55;6.55;;;;;;;6.15;59.23;100483.31;147700;1147;104518;-79
2021/04/23 05:26:43;;;;;;;12.53;6.90;;;;;;;6.15;59.19;100475.36;147589;1147;104575;-78
2021/04/23 05:29:46;;;;;;;12.75;7.42;;;;;;;6.36;59.15;100474.66;147694;1147;104575;-78
2021/04/23 05:32:49;;;;;;;12.35;6.15;;;;;;;6.54;58.69;100477.66;147797;1146;104530;-78
2021/04/23 05:35:52;;;;;;;11.88;6.10;;;;;;;6.64;58.46;100471.52;147672;1147;104553;-79
2021/04/23 05:38:56;;;;;;;12.83;6.77;;;;;;;6.72;59.47;100472.69;147265;1147;104564;-79
2021/04/23 05:41:59;;;;;;;13.20;6.80;;;;;;;6.84;58.18;100480.52;147450;1147;104485;-78
2021/04/23 05:45:02;;;;;;;9.77;5.60;;;;;;;6.93;58.64;100484.25;147530;1148;104934;-79
2021/04/23 05:48:08;;;;;;;13.58;6.25;;;;;;;6.96;58.74;100483.14;147596;1147;104478;-79
2021/04/23 05:51:11;;;;;;;23.05;10.32;;;;;;;7.00;58.55;100480.11;147602;1147;104494;-78
2021/04/23 05:54:15;;;;;;;12.47;6.22;;;;;;;7.01;57.12;100489.77;147610;1147;105003;-80
2021/04/23 05:57:18;;;;;;;11.20;5.80;;;;;;;6.91;58.11;100488.83;147557;1146;104572;-79
2021/04/23 06:00:24;;;;;;;9.50;5.70;;;;;;;7.06;58.73;100495.55;147721;1146;104570;-79
2021/04/23 06:03:27;;;;;;;11.63;5.63;;;;;;;7.11;57.96;100496.98;147797;1147;104616;-79
2021/04/23 06:06:30;;;;;;;13.07;5.93;;;;;;;7.13;57.88;100497.70;147749;1147;104552;-81
2021/04/23 06:09:34;;;;;;;10.90;5.70;;;;;;;7.18;58.12;100492.84;147821;1147;104624;-79
2021/04/23 06:12:37;;;;;;;10.63;5.28;;;;;;;7.25;58.25;100494.03;147277;1147;104565;-79
2021/04/23 06:15:41;;;;;;;13.95;5.75;;;;;;;7.28;57.80;100489.32;147236;1146;104559;-80
2021/04/23 06:18:44;;;;;;;9.83;5.53;;;;;;;7.40;58.00;100479.50;147299;1146;104677;-80
2021/04/23 06:21:48;;;;;;;12.00;5.85;;;;;;;7.48;57.96;100489.48;147263;1148;104614;-79
2021/04/23 06:24:51;;;;;;;11.22;5.05;;;;;;;7.54;56.93;100482.82;147532;1146;104563;-79
2021/04/23 06:27:55;;;;;;;10.57;5.00;;;;;;;7.61;57.78;100486.66;147462;1147;104572;-79
2021/04/23 06:30:59;;;;;;;15.00;7.08;;;;;;;7.61;57.11;100486.66;147750;1147;104481;-79
2021/04/23 06:34:02;;;;;;;11.22;5.47;;;;;;;7.60;57.60;100488.48;147745;1147;104541;-79
2021/04/23 06:37:05;;;;;;;8.93;4.80;;;;;;;7.48;57.12;100486.83;147756;1147;104566;-78
2021/04/23 06:40:10;;;;;;;8.60;4.75;;;;;;;7.52;57.57;100487.42;147737;1147;104483;-79
2021/04/23 06:43:13;;;;;;;8.65;4.58;;;;;;;7.60;57.04;100485.82;147846;1147;104572;-78
2021/04/23 06:46:17;;;;;;;7.65;4.55;;;;;;;7.56;57.09;100492.33;147757;1147;104805;-78
2021/04/23 06:49:20;;;;;;;9.45;4.42;;;;;;;7.55;57.16;100484.52;147543;1147;104572;-83
2021/04/23 06:52:23;;;;;;;9.65;4.30;;;;;;;7.57;56.26;100498.51;147647;1148;104458;-78
2021/04/23 06:55:26;;;;;;;8.60;3.92;;;;;;;7.57;56.55;100491.37;147727;1147;104489;-83
2021/04/23 06:58:30;;;;;;;8.15;3.80;;;;;;;7.59;56.27;100484.13;147777;1148;104484;-80
2021/04/23 07:01:33;;;;;;;9.93;4.50;;;;;;;7.73;56.44;100487.44;147373;1148;104521;-79
2021/04/23 07:04:36;;;;;;;8.40;3.65;;;;;;;7.83;55.92;100488.34;147781;1147;104469;-79
2021/04/23 07:07:39;;;;;;;7.97;3.77;;;;;;;7.88;54.33;100486.14;147757;1148;104537;-81
2021/04/23 07:10:43;;;;;;;8.35;3.47;;;;;;;7.97;54.68;100497.82;147795;1147;104566;-79
2021/04/23 07:13:46;;;;;;;7.78;4.10;;;;;;;8.04;55.31;100491.85;147526;1147;104540;-79
2021/04/23 07:16:50;;;;;;;6.60;3.50;;;;;;;8.20;54.49;100495.86;147330;1147;104511;-83
2021/04/23 07:19:53;;;;;;;8.28;4.03;;;;;;;8.21;54.46;100493.04;147724;1147;104567;-80
2021/04/23 07:22:56;;;;;;;6.50;3.73;;;;;;;8.20;54.12;100483.40;147645;1147;104569;-80
2021/04/23 07:25:59;;;;;;;7.10;3.30;;;;;;;8.19;52.99;100494.99;147852;1148;104506;-81
2021/04/23 07:29:03;;;;;;;7.65;4.28;;;;;;;8.24;52.59;100497.27;147784;1148;104560;-80
2021/04/23 07:32:07;;;;;;;7.20;3.87;;;;;;;8.19;53.54;100494.99;147696;1147;104484;-81
2021/04/23 07:35:13;;;;;;;6.12;3.08;;;;;;;8.11;53.13;100497.47;147751;1147;104565;-80
2021/04/23 07:38:16;;;;;;;6.45;3.25;;;;;;;8.17;51.78;100494.28;147623;1147;104573;-82
2021/04/23 07:41:20;;;;;;;5.92;2.67;;;;;;;8.26;53.07;100490.84;147828;1148;104500;-81
2021/04/23 07:44:24;;;;;;;6.90;3.10;;;;;;;8.39;53.19;100489.77;147752;1147;104493;-80
2021/04/23 07:47:27;;;;;;;5.12;2.77;;;;;;;8.45;52.69;100491.95;147711;1147;104569;-79
2021/04/23 07:50:31;;;;;;;5.85;2.70;;;;;;;8.48;51.25;100494.32;147872;1148;104481;-79
2021/04/23 07:53:34;;;;;;;6.12;2.20;;;;;;;8.49;52.07;100490.70;147829;1145;105038;-79
2021/04/23 07:56:39;;;;;;;5.07;2.60;;;;;;;8.54;51.78;100491.12;147845;1147;104521;-79
2021/04/23 07:59:42;;;;;;;5.65;2.50;;;;;;;8.61;50.46;100494.10;147805;1148;104576;-79
2021/04/23 08:02:46;;;;;;;3.77;2.20;;;;;;;8.61;49.01;100489.61;147900;1147;104563;-78
2021/04/23 08:05:49;;;;;;;5.75;2.35;;;;;;;8.68;50.30;100507.69;147836;1147;104496;-79
2021/04/23 08:08:53;;;;;;;6.33;2.80;;;;;;;8.68;49.57;100497.05;147829;1147;104854;-79
2021/04/23 08:11:56;;;;;;;10.03;2.75;;;;;;;8.63;50.48;100495.64;147446;1148;104574;-81
2021/04/23 08:14:59;;;;;;;6.33;3.08;;;;;;;8.73;48.38;100502.81;147708;1147;104559;-81
2021/04/23 08:18:03;;;;;;;7.50;3.12;;;;;;;8.93;50.32;100496.59;147767;1147;104473;-80
2021/04/23 08:21:07;;;;;;;5.50;2.55;;;;;;;9.14;51.07;100492.96;147739;1148;104502;-80
2021/04/23 08:24:12;;;;;;;7.30;2.52;;;;;;;9.38;49.01;100481.92;147722;1147;104628;-80
2021/04/23 08:27:15;;;;;;;4.43;2.40;;;;;;;9.65;49.67;100469.72;147826;1147;104569;-79
2021/04/23 08:30:21;;;;;;;6.00;2.62;;;;;;;9.67;45.55;100481.91;147797;1145;104474;-79
2021/04/23 08:33:25;;;;;;;5.33;2.77;;;;;;;9.87;47.97;100482.71;147792;1147;104464;-79
2021/04/23 08:36:28;;;;;;;6.60;3.13;;;;;;;10.17;48.77;100471.00;147847;1148;104566;-81
2021/04/23 08:39:31;;;;;;;6.30;3.10;;;;;;;10.39;48.22;100479.66;147899;1147;104565;-78
2021/04/23 08:42:35;;;;;;;4.70;2.85;;;;;;;10.47;43.69;100479.79;147778;1148;104449;-80
2021/04/23 08:45:38;;;;;;;7.10;2.60;;;;;;;10.44;46.60;100472.06;147814;1147;104549;-81
2021/04/23 08:48:42;;;;;;;5.28;2.67;;;;;;;10.48;47.06;100468.11;147841;1147;104812;-81
2021/04/23 08:51:47;;;;;;;6.20;2.47;;;;;;;10.65;48.48;100457.66;147753;1147;104572;-79
2021/04/23 08:54:50;;;;;;;7.17;3.05;;;;;;;10.69;45.20;100464.37;147875;1147;104569;-80
2021/04/23 08:57:53;;;;;;;6.58;3.25;;;;;;;10.38;45.05;100478.00;147888;1147;104556;-82
2021/04/23 09:00:57;;;;;;;10.35;3.83;;;;;;;9.96;46.71;100499.69;147740;1147;104570;-83
2021/04/23 09:04:00;;;;;;;9.77;4.00;;;;;;;9.29;51.36;100520.87;147907;1147;104576;-80
2021/04/23 09:07:04;;;;;;;6.97;4.05;;;;;;;8.65;51.68;100524.77;147888;1147;104572;-80
2021/04/23 09:10:11;;;;;;;9.35;5.08;;;;;;;8.33;52.57;100506.25;147851;1147;104605;-80
2021/04/23 09:13:16;;;;;;;11.70;6.20;;;;;;;8.20;53.19;100502.01;147922;1147;104486;-80
2021/04/23 09:16:22;;;;;;;11.97;6.70;;;;;;;8.23;53.92;100492.91;147527;1147;104573;-79
2021/04/23 09:19:27;;;;;;;12.83;6.27;;;;;;;8.19;55.47;100492.33;147779;1147;104563;-79
2021/04/23 09:22:32;;;;;;;9.80;5.65;;;;;;;8.18;55.52;100495.98;147863;1147;104478;-80
2021/04/23 09:25:48;;;;;;;9.98;5.87;;;;;;;8.30;54.95;100486.10;147899;1147;104505;-81
2021/04/23 09:28:51;;;;;;;6.55;4.45;;;;;;;8.41;55.09;100478.07;147888;1148;104502;-80
2021/04/23 09:31:55;;;;;;;9.87;4.53;;;;;;;8.49;56.21;100480.06;147595;1147;104572;-81
2021/04/23 09:35:00;;;;;;;9.75;4.87;;;;;;;8.60;55.27;100477.31;147772;1147;104482;-81
2021/04/23 09:38:04;;;;;;;6.78;3.80;;;;;;;8.69;53.83;100480.13;147839;1147;104456;-80
2021/04/23 09:41:21;;;;;;;7.60;4.60;;;;;;;8.82;52.83;100475.41;147866;1147;104524;-80
2021/04/23 09:44:30;;;;;;;7.67;4.15;;;;;;;9.12;53.19;100457.66;147869;1147;104547;-81
2021/04/23 09:47:38;;;;;;;7.92;3.65;;;;;;;9.26;48.79;100470.57;147445;1147;104566;-82
2021/04/23 09:50:42;;;;;;;6.47;3.45;;;;;;;9.27;48.09;100474.06;147512;1147;104476;-85
2021/04/23 09:53:45;;;;;;;5.60;3.80;;;;;;;9.24;50.33;100465.38;147565;1147;104485;-83
2021/04/23 09:56:48;;;;;;;7.62;4.30;;;;;;;9.24;49.25;100453.89;147677;1148;104516;-82
2021/04/23 09:59:54;;;;;;;8.00;4.43;;;;;;;9.29;50.43;100467.61;147898;1147;104613;-82
2021/04/23 10:02:58;;;;;;;6.92;4.60;;;;;;;9.43;48.73;100464.55;147742;1147;104492;-81
2021/04/23 10:06:23;;;;;;;5.67;4.37;;;;;;;9.74;49.84;100460.88;147840;1147;104492;-81
2021/04/23 10:09:26;;;;;;;5.40;3.85;;;;;;;9.88;48.05;100459.59;147693;1147;104484;-80
2021/04/23 10:12:38;;;;;;;6.00;4.00;;;;;;;9.80;49.07;100446.98;147837;1147;104634;-80
2021/04/23 10:15:43;;;;;;;5.40;3.45;;;;;;;9.85;48.26;100449.20;147738;1147;104567;-80
2021/04/23 10:18:46;;;;;;;6.10;3.77;;;;;;;10.02;46.17;100441.30;147537;1147;104557;-80
2021/04/23 10:21:50;;;;;;;7.40;4.10;;;;;;;10.25;48.83;100437.44;147799;1147;104474;-81
2021/04/23 10:24:54;;;;;;;6.53;3.83;;;;;;;10.42;48.29;100418.02;147873;1147;104608;-80
2021/04/23 10:27:59;;;;;;;7.10;3.60;;;;;;;10.50;47.04;100415.45;147708;1147;104551;-81
2021/04/23 10:31:03;;;;;;;7.40;4.50;;;;;;;10.48;46.09;100421.93;147872;1147;104577;-82
2021/04/23 10:34:08;;;;;;;6.25;3.45;;;;;;;10.39;46.45;100428.98;147848;1147;104546;-81
2021/04/23 10:37:14;;;;;;;7.45;3.35;;;;;;;10.30;42.52;100432.52;147890;1147;104487;-83
2021/04/23 10:40:19;;;;;;;5.92;3.67;;;;;;;10.37;45.32;100433.63;147898;1147;104566;-79
2021/04/23 10:43:22;;;;;;;5.60;3.60;;;;;;;10.56;42.24;100424.69;147874;1147;104588;-83
2021/04/23 10:46:28;;;;;;;5.60;3.15;;;;;;;10.86;46.12;100426.20;147913;1147;104508;-81
2021/04/23 10:49:32;;;;;;;4.93;2.57;;;;;;;11.11;43.04;100413.09;147860;1147;104502;-80
2021/04/23 10:52:35;;;;;;;4.20;2.70;;;;;;;11.25;42.82;100420.56;147894;1147;104566;-80
2021/04/23 10:55:48;;;;;;;5.70;2.62;;;;;;;11.13;42.68;100443.16;147702;1147;104478;-81
2021/04/23 10:58:52;;;;;;;8.13;2.90;;;;;;;10.33;43.14;100467.74;147832;1147;104614;-82
2021/04/23 11:02:13;;;;;;;6.43;2.87;;;;;;;9.81;45.00;100486.82;147953;1147;104901;-79
2021/04/23 11:05:16;;;;;;;9.35;2.87;;;;;;;9.37;46.34;100513.05;147864;1147;104881;-80
2021/04/23 11:08:20;;;;;;;7.37;3.47;;;;;;;9.19;46.75;100504.88;147756;1147;104681;-80
2021/04/23 11:11:23;;;;;;;7.62;2.50;;;;;;;9.10;46.84;100495.05;147763;1147;104494;-80
2021/04/23 11:14:32;;;;;;;4.30;2.30;;;;;;;9.09;46.74;100506.70;147842;1147;104697;-80
2021/04/23 11:17:35;;;;;;;5.08;2.15;;;;;;;9.41;46.48;100511.79;147780;1148;104526;-82
2021/04/23 11:20:39;;;;;;;4.17;2.58;;;;;;;9.85;46.00;100495.34;147766;1148;104444;-79
2021/04/23 11:24:16;;;;;;;5.60;3.77;;;;;;;10.33;46.66;100482.91;147790;1147;104471;-81
2021/04/23 11:27:19;;;;;;;5.50;3.33;;;;;;;10.82;45.77;100483.55;147720;1147;104479;-80
2021/04/23 11:30:22;;;;;;;5.22;2.65;;;;;;;11.03;45.00;100479.75;147386;1147;104569;-79
2021/04/23 11:34:00;;;;;;;4.33;2.50;;;;;;;11.29;44.12;100475.35;147821;1147;104475;-80
2021/04/23 11:37:06;;;;;;;4.40;2.20;;;;;;;11.61;43.04;100463.29;147887;1147;104812;-79
2021/04/23 11:40:18;;;;;;;3.65;2.40;;;;;;;11.57;42.34;100477.95;147674;1146;104474;-82
2021/04/23 11:43:38;;;;;;;3.30;2.25;;;;;;;11.52;43.33;100481.07;147824;1147;104567;-80
2021/04/23 11:46:55;;;;;;;6.67;2.60;;;;;;;11.30;43.08;100486.91;147720;1147;104634;-80
2021/04/23 11:50:20;;;;;;;6.58;3.67;;;;;;;10.96;43.44;100507.06;147907;1147;104556;-80
2021/04/23 11:53:24;;;;;;;5.45;2.50;;;;;;;10.58;43.29;100558.79;147806;1147;104553;-82
2021/04/23 11:56:27;;;;;;;6.35;3.20;;;;;;;9.78;47.61;100612.34;147843;1147;104546;-80
2021/04/23 11:59:31;;;;;;;4.05;2.90;;;;;;;8.63;51.90;100651.75;147868;1145;104512;-82
2021/04/23 12:02:43;;;;;;;3.17;2.50;;;;;;;7.21;59.55;100641.23;147931;1147;104652;-82
2021/04/23 12:05:48;;;;;;;3.70;2.40;;;;;;;6.29;59.12;100660.66;147859;1147;104528;-81
2021/04/23 12:08:51;;;;;;;4.37;2.75;;;;;;;5.58;58.23;100669.41;147833;1147;104559;-80
2021/04/23 12:12:05;;;;;;;4.12;2.87;;;;;;;4.99;65.77;100691.23;147881;1147;104672;-82
2021/04/23 12:15:20;;;;;;;4.60;2.90;;;;;;;4.22;69.40;100689.33;147876;1147;104677;-80
2021/04/23 12:18:23;;;;;;;4.42;2.92;;;;;;;3.92;63.52;100682.45;147655;1147;104569;-82
2021/04/23 12:21:27;;;;;;;5.62;2.83;;;;;;;3.64;66.09;100693.12;147764;1147;104550;-79
2021/04/23 12:24:30;;;;;;;6.35;3.72;;;;;;;3.50;66.86;100686.94;147920;1147;104557;-79
2021/04/23 12:27:33;;;;;;;7.05;3.70;;;;;;;3.58;66.68;100680.30;147759;1147;104895;-79
2021/04/23 12:30:36;;;;;;;5.03;3.37;;;;;;;3.74;66.94;100670.47;147575;1147;104514;-79
2021/04/23 12:33:42;;;;;;;4.90;3.57;;;;;;;3.97;66.98;100663.69;147833;1147;104563;-79
2021/04/23 12:36:47;;;;;;;6.90;3.75;;;;;;;4.26;68.43;100656.48;147928;1147;104572;-79
2021/04/23 12:39:51;;;;;;;7.83;4.47;;;;;;;4.51;66.99;100646.91;147923;1147;104483;-79
2021/04/23 12:42:54;;;;;;;7.65;4.33;;;;;;;4.91;63.97;100641.52;147749;1147;104560;-79
2021/04/23 12:45:57;;;;;;;6.50;3.90;;;;;;;5.32;67.90;100650.96;147762;1147;104547;-79
2021/04/23 12:49:07;;;;;;;7.00;4.40;;;;;;;5.64;64.27;100642.48;147738;1147;104629;-79
2021/04/23 12:52:13;;;;;;;9.33;4.30;;;;;;;6.13;65.39;100633.61;147721;1147;104494;-79
2021/04/23 12:55:16;;;;;;;6.17;3.93;;;;;;;6.45;66.75;100643.59;147746;1147;104493;-85
2021/04/23 12:58:20;;;;;;;6.43;3.57;;;;;;;6.45;65.89;100639.12;147773;1147;104507;-80
2021/04/23 13:01:23;;;;;;;5.95;3.20;;;;;;;6.57;63.83;100632.03;147781;1147;104563;-79
2021/04/23 13:04:27;;;;;;;3.62;2.90;;;;;;;6.65;64.88;100645.54;147704;1147;104609;-80
2021/04/23 13:07:30;;;;;;;3.50;2.30;;;;;;;6.75;64.64;100634.23;147839;1147;104457;-81
2021/04/23 13:10:41;;;;;;;5.03;3.47;;;;;;;6.86;63.66;100635.08;147872;1147;104485;-82
2021/04/23 13:13:45;;;;;;;4.03;2.75;;;;;;;7.13;65.67;100627.73;147772;1147;104448;-80
2021/04/23 13:17:00;;;;;;;5.67;3.77;;;;;;;7.37;63.16;100631.09;147879;1147;104571;-83
2021/04/23 13:20:15;;;;;;;4.80;3.33;;;;;;;7.50;62.78;100614.16;147864;1147;104586;-80
2021/04/23 13:23:31;;;;;;;5.50;3.62;;;;;;;7.55;63.41;100615.47;147889;1147;104576;-81
2021/04/23 13:26:35;;;;;;;6.95;4.15;;;;;;;7.83;62.93;100611.41;147858;1147;104553;-80
2021/04/23 13:29:41;;;;;;;4.25;3.08;;;;;;;7.90;61.48;100605.58;147328;1148;104882;-80
2021/04/23 13:32:51;;;;;;;5.22;3.05;;;;;;;8.10;62.14;100602.09;147876;1147;104569;-81
2021/04/23 13:36:06;;;;;;;4.05;2.77;;;;;;;8.02;62.74;100618.67;147336;1147;104972;-84
2021/04/23 13:39:09;;;;;;;3.97;3.03;;;;;;;7.79;60.64;100614.42;147823;1147;104724;-82
2021/04/23 13:42:24;;;;;;;5.55;3.35;;;;;;;7.75;61.57;100608.52;147857;1147;104489;-80
2021/04/23 13:45:28;;;;;;;27.70;13.68;;;;;;;7.83;62.08;100608.75;147742;1145;104617;-80
2021/04/23 13:48:32;;;;;;;50.97;26.37;;;;;;;8.05;61.87;100598.98;147893;1147;104899;-81
2021/04/23 13:51:39;;;;;;;71.03;41.90;;;;;;;8.36;62.06;100612.36;147837;1147;104543;-80
2021/04/23 13:54:43;;;;;;;23.42;13.58;;;;;;;8.59;60.30;100597.13;147974;1147;104546;-80
2021/04/23 13:58:04;;;;;;;12.88;6.60;;;;;;;8.78;60.48;100599.05;147913;1147;104414;-82
2021/04/23 14:01:07;;;;;;;12.75;8.90;;;;;;;8.79;60.44;100590.08;147644;1147;104563;-80
2021/04/23 14:04:12;;;;;;;11.23;4.73;;;;;;;8.94;59.93;100586.08;147739;1148;104550;-79